sensor_id;sensor_type;location;lat;lon;timestamp;P1;durP1;ratioP1;P2;durP2;ratioP2
64375;SDS011;50700;55.416;12.952;2022-08-16T17:13:53;14.65;;;11.57;;
64375;SDS011;50700;55.416;12.952;2022-08-16T17:16:20;17.15;;;12.43;;
64375;SDS011;50700;55.416;12.952;2022-08-16T17:18:47;14.32;;;10.73;;
64375;SDS011;50700;55.416;12.952;2022-08-16T17:21:13;15.15;;;12.55;;
64375;SDS011;50700;55.416;12.952;2022-08-16T17:23:39;13.80;;;11.38;;
64375;SDS011;50700;55.416;12.952;2022-08-16T17:26:06;13.45;;;11.35;;
64375;SDS011;50700;55.416;12.952;2022-08-16T17:28:34;15.00;;;11.70;;
64375;SDS011;50700;55.416;12.952;2022-08-16T17:31:00;14.15;;;11.38;;
64375;SDS011;50700;55.416;12.952;2022-08-16T17:33:27;15.10;;;11.25;;
64375;SDS011;50700;55.416;12.952;2022-08-16T17:35:54;14.35;;;10.82;;
64375;SDS011;50700;55.416;12.952;2022-08-16T17:38:20;15.10;;;11.55;;
64375;SDS011;50700;55.416;12.952;2022-08-16T17:40:48;13.20;;;11.68;;
64375;SDS011;50700;55.416;12.952;2022-08-16T17:43:16;16.80;;;12.50;;
64375;SDS011;50700;55.416;12.952;2022-08-16T17:45:44;16.40;;;12.57;;
64375;SDS011;50700;55.416;12.952;2022-08-16T17:48:11;15.13;;;12.32;;
64375;SDS011;50700;55.416;12.952;2022-08-16T17:50:38;17.88;;;12.27;;
64375;SDS011;50700;55.416;12.952;2022-08-16T17:53:04;13.43;;;11.10;;
64375;SDS011;50700;55.416;12.952;2022-08-16T17:55:32;14.77;;;11.50;;
64375;SDS011;50700;55.416;12.952;2022-08-16T17:57:59;14.60;;;11.40;;
64375;SDS011;50700;55.416;12.952;2022-08-16T18:00:26;16.42;;;12.00;;
64375;SDS011;50700;55.416;12.952;2022-08-16T18:02:52;13.00;;;11.48;;
64375;SDS011;50700;55.416;12.952;2022-08-16T18:05:23;13.52;;;10.73;;
64375;SDS011;50700;55.416;12.952;2022-08-16T18:07:50;15.65;;;11.55;;
64375;SDS011;50700;55.416;12.952;2022-08-16T18:10:17;14.00;;;11.35;;
64375;SDS011;50700;55.416;12.952;2022-08-16T18:12:46;14.85;;;11.75;;
64375;SDS011;50700;55.416;12.952;2022-08-16T18:15:14;13.50;;;11.18;;
64375;SDS011;50700;55.416;12.952;2022-08-16T18:17:41;13.73;;;10.75;;
64375;SDS011;50700;55.416;12.952;2022-08-16T18:20:08;13.88;;;11.00;;
64375;SDS011;50700;55.416;12.952;2022-08-16T18:23:17;15.13;;;11.00;;
64375;SDS011;50700;55.416;12.952;2022-08-16T18:25:45;17.23;;;11.48;;
64375;SDS011;50700;55.416;12.952;2022-08-16T18:28:12;13.25;;;11.32;;
64375;SDS011;50700;55.416;12.952;2022-08-16T18:30:38;15.10;;;11.30;;
64375;SDS011;50700;55.416;12.952;2022-08-16T18:33:05;16.40;;;11.73;;
64375;SDS011;50700;55.416;12.952;2022-08-16T18:35:31;13.75;;;11.50;;
64375;SDS011;50700;55.416;12.952;2022-08-16T18:37:57;13.52;;;10.77;;
64375;SDS011;50700;55.416;12.952;2022-08-16T18:40:24;15.32;;;11.90;;
64375;SDS011;50700;55.416;12.952;2022-08-16T18:42:51;15.30;;;11.88;;
64375;SDS011;50700;55.416;12.952;2022-08-16T18:45:18;17.30;;;12.32;;
64375;SDS011;50700;55.416;12.952;2022-08-16T18:47:44;16.30;;;12.60;;
64375;SDS011;50700;55.416;12.952;2022-08-16T18:50:10;16.27;;;12.40;;
64375;SDS011;50700;55.416;12.952;2022-08-16T18:52:36;15.90;;;12.05;;
64375;SDS011;50700;55.416;12.952;2022-08-16T18:55:02;12.98;;;10.75;;
64375;SDS011;50700;55.416;12.952;2022-08-16T18:57:29;13.23;;;11.32;;
64375;SDS011;50700;55.416;12.952;2022-08-16T18:59:55;16.25;;;12.30;;
64375;SDS011;50700;55.416;12.952;2022-08-16T19:02:22;19.13;;;11.98;;
64375;SDS011;50700;55.416;12.952;2022-08-16T19:04:49;16.85;;;13.75;;
64375;SDS011;50700;55.416;12.952;2022-08-16T19:07:15;19.27;;;12.48;;
64375;SDS011;50700;55.416;12.952;2022-08-16T19:09:41;15.10;;;12.93;;
64375;SDS011;50700;55.416;12.952;2022-08-16T19:12:07;18.27;;;12.68;;
64375;SDS011;50700;55.416;12.952;2022-08-16T19:14:33;16.75;;;12.10;;
64375;SDS011;50700;55.416;12.952;2022-08-16T19:17:00;19.10;;;13.55;;
64375;SDS011;50700;55.416;12.952;2022-08-16T19:19:26;19.95;;;14.57;;
64375;SDS011;50700;55.416;12.952;2022-08-16T19:21:52;22.70;;;15.18;;
64375;SDS011;50700;55.416;12.952;2022-08-16T19:24:18;19.17;;;15.30;;
64375;SDS011;50700;55.416;12.952;2022-08-16T19:26:44;22.13;;;15.45;;
64375;SDS011;50700;55.416;12.952;2022-08-16T19:29:11;20.80;;;15.02;;
64375;SDS011;50700;55.416;12.952;2022-08-16T19:31:37;22.60;;;16.00;;
64375;SDS011;50700;55.416;12.952;2022-08-16T19:34:03;18.40;;;14.10;;
64375;SDS011;50700;55.416;12.952;2022-08-16T19:36:34;22.15;;;16.35;;
64375;SDS011;50700;55.416;12.952;2022-08-16T19:39:01;20.83;;;15.45;;
64375;SDS011;50700;55.416;12.952;2022-08-16T19:41:27;22.48;;;15.73;;
64375;SDS011;50700;55.416;12.952;2022-08-16T19:43:54;22.75;;;16.00;;
64375;SDS011;50700;55.416;12.952;2022-08-16T19:46:20;22.42;;;15.27;;
64375;SDS011;50700;55.416;12.952;2022-08-16T19:48:46;23.98;;;15.90;;
64375;SDS011;50700;55.416;12.952;2022-08-16T19:51:12;21.67;;;16.42;;
64375;SDS011;50700;55.416;12.952;2022-08-16T19:53:40;26.65;;;16.17;;
64375;SDS011;50700;55.416;12.952;2022-08-16T19:56:07;23.67;;;16.33;;
64375;SDS011;50700;55.416;12.952;2022-08-16T19:58:33;21.05;;;16.25;;
64375;SDS011;50700;55.416;12.952;2022-08-16T20:01:00;24.23;;;17.45;;
64375;SDS011;50700;55.416;12.952;2022-08-16T20:03:26;21.95;;;15.88;;
64375;SDS011;50700;55.416;12.952;2022-08-16T20:05:52;20.08;;;15.18;;
64375;SDS011;50700;55.416;12.952;2022-08-16T20:08:19;19.77;;;14.63;;
64375;SDS011;50700;55.416;12.952;2022-08-16T20:10:46;19.88;;;14.38;;
64375;SDS011;50700;55.416;12.952;2022-08-16T20:13:19;20.38;;;15.18;;
64375;SDS011;50700;55.416;12.952;2022-08-16T20:15:46;23.63;;;16.63;;
64375;SDS011;50700;55.416;12.952;2022-08-16T20:18:13;22.20;;;15.15;;
64375;SDS011;50700;55.416;12.952;2022-08-16T20:20:40;22.02;;;16.35;;
64375;SDS011;50700;55.416;12.952;2022-08-16T20:23:11;22.45;;;16.17;;
64375;SDS011;50700;55.416;12.952;2022-08-16T20:25:38;21.73;;;15.52;;
64375;SDS011;50700;55.416;12.952;2022-08-16T20:28:05;21.13;;;15.48;;
64375;SDS011;50700;55.416;12.952;2022-08-16T20:30:31;21.92;;;15.07;;
64375;SDS011;50700;55.416;12.952;2022-08-16T20:32:57;21.20;;;16.33;;
64375;SDS011;50700;55.416;12.952;2022-08-16T20:35:24;21.08;;;14.52;;
64375;SDS011;50700;55.416;12.952;2022-08-16T20:37:51;20.25;;;13.73;;
64375;SDS011;50700;55.416;12.952;2022-08-16T20:40:19;22.25;;;14.57;;
64375;SDS011;50700;55.416;12.952;2022-08-16T20:42:56;17.20;;;13.80;;
64375;SDS011;50700;55.416;12.952;2022-08-16T20:45:22;19.20;;;14.27;;
64375;SDS011;50700;55.416;12.952;2022-08-16T20:47:50;21.80;;;14.45;;
64375;SDS011;50700;55.416;12.952;2022-08-16T20:50:16;19.95;;;14.80;;
64375;SDS011;50700;55.416;12.952;2022-08-16T20:52:42;19.42;;;15.57;;
64375;SDS011;50700;55.416;12.952;2022-08-16T20:55:09;20.88;;;15.40;;
64375;SDS011;50700;55.416;12.952;2022-08-16T20:57:35;18.88;;;14.07;;
64375;SDS011;50700;55.416;12.952;2022-08-16T21:00:03;20.25;;;15.30;;
64375;SDS011;50700;55.416;12.952;2022-08-16T21:02:30;19.35;;;14.98;;
64375;SDS011;50700;55.416;12.952;2022-08-16T21:04:56;22.40;;;15.55;;
64375;SDS011;50700;55.416;12.952;2022-08-16T21:07:22;21.60;;;15.90;;
64375;SDS011;50700;55.416;12.952;2022-08-16T21:09:48;25.63;;;16.83;;
64375;SDS011;50700;55.416;12.952;2022-08-16T21:12:15;23.27;;;16.02;;
64375;SDS011;50700;55.416;12.952;2022-08-16T21:14:41;20.83;;;15.45;;
64375;SDS011;50700;55.416;12.952;2022-08-16T21:17:09;22.65;;;17.00;;
64375;SDS011;50700;55.416;12.952;2022-08-16T21:19:37;22.25;;;17.35;;
64375;SDS011;50700;55.416;12.952;2022-08-16T21:24:42;21.27;;;16.48;;
64375;SDS011;50700;55.416;12.952;2022-08-16T21:27:08;23.02;;;16.00;;
64375;SDS011;50700;55.416;12.952;2022-08-16T21:29:35;24.05;;;16.88;;
64375;SDS011;50700;55.416;12.952;2022-08-16T21:32:07;23.83;;;17.30;;
64375;SDS011;50700;55.416;12.952;2022-08-16T21:34:34;23.42;;;17.45;;
64375;SDS011;50700;55.416;12.952;2022-08-16T21:37:01;26.58;;;19.08;;
64375;SDS011;50700;55.416;12.952;2022-08-16T21:39:27;24.65;;;16.77;;
64375;SDS011;50700;55.416;12.952;2022-08-16T21:41:53;24.15;;;17.10;;
64375;SDS011;50700;55.416;12.952;2022-08-16T21:44:20;26.13;;;17.30;;
64375;SDS011;50700;55.416;12.952;2022-08-16T21:46:46;25.50;;;18.27;;
64375;SDS011;50700;55.416;12.952;2022-08-16T21:49:12;26.17;;;18.05;;
64375;SDS011;50700;55.416;12.952;2022-08-16T21:51:39;24.02;;;18.17;;
64375;SDS011;50700;55.416;12.952;2022-08-16T21:54:05;23.38;;;16.75;;
64375;SDS011;50700;55.416;12.952;2022-08-16T21:56:31;25.25;;;17.70;;
64375;SDS011;50700;55.416;12.952;2022-08-16T21:58:57;26.55;;;16.90;;
64375;SDS011;50700;55.416;12.952;2022-08-16T22:01:24;24.23;;;16.85;;
64375;SDS011;50700;55.416;12.952;2022-08-16T22:03:51;20.75;;;15.73;;
64375;SDS011;50700;55.416;12.952;2022-08-16T22:06:17;22.45;;;16.25;;
64375;SDS011;50700;55.416;12.952;2022-08-16T22:08:44;23.23;;;16.73;;
64375;SDS011;50700;55.416;12.952;2022-08-16T22:11:13;23.95;;;17.52;;
64375;SDS011;50700;55.416;12.952;2022-08-16T22:13:39;24.00;;;17.98;;
64375;SDS011;50700;55.416;12.952;2022-08-16T22:16:05;21.50;;;15.65;;
64375;SDS011;50700;55.416;12.952;2022-08-16T22:18:32;22.75;;;17.45;;
64375;SDS011;50700;55.416;12.952;2022-08-16T22:20:58;27.48;;;19.77;;
64375;SDS011;50700;55.416;12.952;2022-08-16T22:23:24;23.90;;;17.13;;
64375;SDS011;50700;55.416;12.952;2022-08-16T22:25:51;24.17;;;17.40;;
64375;SDS011;50700;55.416;12.952;2022-08-16T22:28:19;25.50;;;18.13;;
64375;SDS011;50700;55.416;12.952;2022-08-16T22:30:46;27.17;;;18.15;;
64375;SDS011;50700;55.416;12.952;2022-08-16T22:33:19;23.13;;;16.85;;
64375;SDS011;50700;55.416;12.952;2022-08-16T22:35:48;26.17;;;19.20;;
64375;SDS011;50700;55.416;12.952;2022-08-16T22:38:14;25.30;;;17.73;;
64375;SDS011;50700;55.416;12.952;2022-08-16T22:40:41;27.55;;;18.48;;
64375;SDS011;50700;55.416;12.952;2022-08-16T22:43:08;23.67;;;18.67;;
64375;SDS011;50700;55.416;12.952;2022-08-16T22:45:34;24.58;;;17.95;;
64375;SDS011;50700;55.416;12.952;2022-08-16T22:48:01;23.77;;;17.50;;
64375;SDS011;50700;55.416;12.952;2022-08-16T22:50:28;27.15;;;18.35;;
64375;SDS011;50700;55.416;12.952;2022-08-16T22:52:55;26.25;;;17.10;;
64375;SDS011;50700;55.416;12.952;2022-08-16T22:55:22;24.60;;;16.65;;
64375;SDS011;50700;55.416;12.952;2022-08-16T22:57:48;24.90;;;17.17;;
64375;SDS011;50700;55.416;12.952;2022-08-16T23:00:16;25.00;;;17.20;;
64375;SDS011;50700;55.416;12.952;2022-08-16T23:02:59;25.48;;;17.08;;
64375;SDS011;50700;55.416;12.952;2022-08-16T23:05:37;24.92;;;17.48;;
64375;SDS011;50700;55.416;12.952;2022-08-16T23:08:04;27.63;;;18.27;;
64375;SDS011;50700;55.416;12.952;2022-08-16T23:10:32;23.60;;;16.60;;
64375;SDS011;50700;55.416;12.952;2022-08-16T23:13:00;25.02;;;16.40;;
64375;SDS011;50700;55.416;12.952;2022-08-16T23:15:27;27.92;;;17.90;;
64375;SDS011;50700;55.416;12.952;2022-08-16T23:17:54;22.65;;;17.10;;
64375;SDS011;50700;55.416;12.952;2022-08-16T23:20:26;27.58;;;18.40;;
64375;SDS011;50700;55.416;12.952;2022-08-16T23:22:56;36.40;;;20.02;;
64375;SDS011;50700;55.416;12.952;2022-08-16T23:25:30;28.73;;;18.90;;
64375;SDS011;50700;55.416;12.952;2022-08-16T23:27:57;27.73;;;19.70;;
64375;SDS011;50700;55.416;12.952;2022-08-16T23:30:24;27.80;;;19.52;;
64375;SDS011;50700;55.416;12.952;2022-08-16T23:32:55;28.25;;;19.33;;
64375;SDS011;50700;55.416;12.952;2022-08-16T23:35:25;26.30;;;18.58;;
64375;SDS011;50700;55.416;12.952;2022-08-16T23:37:52;27.35;;;18.23;;
64375;SDS011;50700;55.416;12.952;2022-08-16T23:40:19;28.92;;;18.95;;
64375;SDS011;50700;55.416;12.952;2022-08-16T23:42:59;26.00;;;18.73;;
64375;SDS011;50700;55.416;12.952;2022-08-16T23:45:26;26.52;;;18.15;;
64375;SDS011;50700;55.416;12.952;2022-08-16T23:47:53;24.10;;;16.75;;
64375;SDS011;50700;55.416;12.952;2022-08-16T23:50:21;25.98;;;17.65;;
64375;SDS011;50700;55.416;12.952;2022-08-16T23:55:20;23.08;;;15.07;;
64375;SDS011;50700;55.416;12.952;2022-08-16T23:57:46;22.30;;;15.20;;
